PST,Max TemperatureF,Mean TemperatureF,Min TemperatureF,Max Dew PointF,MeanDew PointF,Min DewpointF,Max Humidity, Mean Humidity, Min Humidity, Max Sea Level PressureIn, Mean Sea Level PressureIn, Min Sea Level PressureIn, Max VisibilityMiles, Mean VisibilityMiles, Min VisibilityMiles, Max Wind SpeedMPH, Mean Wind SpeedMPH, Max Gust SpeedMPH,PrecipitationIn, CloudCover, Events, WindDirDegrees
2012-12-1,55,48,42,38,35,30,81,63,38,29.66,29.56,29.41,10,10,2,17,7,23,0.01,4,Rain,120
2012-12-2,50,40,30,40,35,27,87,79,50,29.81,29.41,29.20,10,8,1,22,7,33,0.24,5,Rain,8
2012-12-3,48,38,27,37,32,23,86,74,61,30.02,29.94,29.80,10,10,10,8,2,,0.00,6,Rain,101
2012-12-4,46,40,35,40,36,32,87,81,61,29.78,29.74,29.71,10,9,2,20,7,,0.15,7,Rain,354
2012-12-5,45,39,30,33,27,25,82,64,46,30.20,30.08,29.77,10,10,10,23,15,30,0.00,4,,320
2012-12-6,41,34,28,33,28,24,89,82,60,30.17,30.07,29.99,10,6,0,6,2,,0.08,5,Fog-Rain,23
2012-12-7,41,34,28,34,28,24,88,80,64,30.08,29.98,29.84,10,7,0,29,6,43,0.06,6,Fog-Rain-Snow,305
2012-12-8,39,34,28,31,27,23,86,76,64,30.34,30.18,30.08,10,10,7,9,3,,0.00,4,Snow,328
2012-12-9,48,38,28,36,27,22,85,74,61,30.40,30.29,30.12,10,10,6,33,4,44,0.00,5,Snow,344
2012-12-10,53,47,39,36,32,28,66,59,48,30.29,30.18,30.01,10,10,10,31,22,43,0.00,0,,315
2012-12-11,43,38,32,34,31,27,87,76,62,29.99,29.65,29.52,10,10,10,17,8,,0.05,5,Rain,10
2012-12-12,45,36,28,33,28,23,93,81,56,30.00,29.73,29.58,10,5,0,15,3,,0.00,6,Fog,348
2012-12-13,32,28,23,28,25,18,93,86,80,30.05,29.95,29.82,10,4,0,6,1,,0.00,6,Fog,91
2012-12-14,32,28,21,28,27,19,93,86,80,29.97,29.81,29.74,8,2,0,4,1,,0.07,8,Fog-Snow,69
2012-12-15,30,26,18,27,23,13,93,84,80,29.96,29.76,29.58,10,4,0,7,2,,0.10,8,Fog-Snow,85
2012-12-16,35,25,15,31,23,12,87,83,78,29.78,29.50,29.16,10,5,1,15,2,,0.38,7,Snow,107
2012-12-17,39,29,19,32,27,14,85,76,65,29.88,29.43,29.06,10,9,2,24,9,32,0.07,5,Rain-Snow,335
2012-12-18,30,21,12,20,13,7,84,78,64,30.04,29.96,29.88,10,10,7,6,2,,0.00,1,,89
2012-12-19,37,26,14,28,22,8,85,77,65,30.04,29.88,29.73,10,7,1,13,4,,0.01,8,Snow,94
2012-12-20,42,36,30,29,27,25,82,69,55,29.84,29.72,29.63,10,10,10,10,4,,0.02,5,,94
2012-12-21,36,30,24,31,27,19,93,84,79,29.89,29.80,29.70,10,2,0,7,3,,0.07,7,Fog-Snow,346
2012-12-22,39,32,25,34,29,20,89,84,73,29.80,29.65,29.55,10,6,0,8,3,,0.16,7,Fog-Rain-Snow,37
2012-12-23,36,27,19,30,24,14,93,84,79,29.86,29.72,29.58,10,2,0,14,3,,0.00,7,Fog-Snow,307
2012-12-24,39,31,23,29,25,16,82,73,64,30.17,30.02,29.77,10,10,10,14,9,,0.16,1,,306
2012-12-25,32,26,21,27,25,16,86,83,78,30.14,29.87,29.78,10,5,0,8,2,110,0.01,7,Snow,105
2012-12-26,34,31,28,28,26,24,88,83,75,29.97,29.84,29.76,9,3,0,5,1,,0.27,8,Fog-Snow,341
2012-12-27,35,30,23,27,24,19,89,84,70,30.20,30.04,29.91,7,2,0,6,0,,0.04,7,Fog-Snow,350
2012-12-28,28,24,19,25,21,15,93,84,78,30.27,30.22,30.16,6,2,0,6,1,,0.00,8,Fog-Snow,302
2012-12-29,30,27,24,25,23,19,86,81,72,30.26,30.17,30.08,10,6,1,5,1,,0.03,8,Snow,353
2012-12-30,25,22,19,21,18,15,89,83,78,30.39,30.32,30.23,10,3,0,7,2,,0.00,8,Fog,316
2012-12-31,24,20,17,19,16,12,93,82,74,30.54,30.38,30.29,9,3,0,7,3,,0.00,8,Fog,275